Time;durP1;ratioP1;P1;durP2;ratioP2;P2;SDS_P1;SDS_P2;PMS_P1;PMS_P2;Temp;Humidity;BMP_temperature;BMP_pressure;BME280_temperature;BME280_humidity;BME280_pressure;Samples;Min_cycle;Max_cycle;Signal;HPM_P1;HPM_P2
2023/02/20 00:01:59;;;;;;;;;;;;;;;0.86;81.02;100944.98;106547;1276;22516;-57
2023/02/20 00:04:29;;;;;;;;;;;;;;;0.85;81.03;100944.36;106609;1277;22509;-59
2023/02/20 00:06:58;;;;;;;;;;;;;;;0.84;81.10;100946.17;106451;1277;25522;-57
2023/02/20 00:09:28;;;;;;;;;;;;;;;0.83;81.11;100948.38;106523;1272;24307;-56
2023/02/20 00:11:57;;;;;;;;;;;;;;;0.80;81.19;100947.58;106568;1277;22507;-56
2023/02/20 00:14:29;;;;;;;;;;;;;;;0.79;81.20;100942.34;106566;1264;23259;-58
2023/02/20 00:16:58;;;;;;;;;;;;;;;0.77;81.20;100936.38;106609;1274;24244;-56
2023/02/20 00:19:27;;;;;;;;;;;;;;;0.77;81.33;100930.33;106477;1271;24082;-58
2023/02/20 00:21:56;;;;;;;;;;;;;;;0.75;81.42;100923.82;106483;1277;22535;-58
2023/02/20 00:24:26;;;;;;;;;;;;;;;0.75;81.55;100922.40;106814;1275;24332;-56
2023/02/20 00:26:55;;;;;;;;;;;;;;;0.75;81.70;100918.47;106500;1277;22506;-56
2023/02/20 00:29:25;;;;;;;;;;;;;;;0.74;81.82;100912.83;106432;1271;24280;-59
2023/02/20 00:31:55;;;;;;;;;;;;;;;0.74;81.92;100903.95;106553;1275;24263;-57
2023/02/20 00:34:27;;;;;;;;;;;;;;;0.75;82.04;100902.21;106501;1264;22628;-58
2023/02/20 00:36:56;;;;;;;;;;;;;;;0.76;82.08;100892.72;106542;1277;22515;-57
2023/02/20 00:39:25;;;;;;;;;;;;;;;0.78;82.23;100892.71;106724;1270;22527;-56
2023/02/20 00:41:56;;;;;;;;;;;;;;;0.81;82.22;100891.91;106653;1271;23147;-57
2023/02/20 00:44:26;;;;;;;;;;;;;;;0.83;82.23;100893.17;106617;1275;23027;-55
2023/02/20 00:46:55;;;;;;;;;;;;;;;0.84;82.40;100888.22;106446;1277;24407;-57
2023/02/20 00:49:24;;;;;;;;;;;;;;;0.85;82.37;100884.05;106478;1271;22522;-56
2023/02/20 00:51:54;;;;;;;;;;;;;;;0.87;82.42;100888.20;106411;1277;24368;-57
2023/02/20 00:54:23;;;;;;;;;;;;;;;0.90;82.46;100894.15;106421;1271;24378;-57
2023/02/20 00:56:53;;;;;;;;;;;;;;;0.93;82.44;100898.71;106532;1270;22518;-58
2023/02/20 00:59:22;;;;;;;;;;;;;;;0.95;82.50;100896.27;106451;1277;22524;-58
2023/02/20 01:01:51;;;;;;;;;;;;;;;0.97;82.53;100898.85;106440;1270;22529;-57
2023/02/20 01:04:21;;;;;;;;;;;;;;;1.00;82.47;100897.83;106549;1270;25409;-57
2023/02/20 01:06:50;;;;;;;;;;;;;;;1.02;82.52;100891.45;106523;1277;25357;-57
2023/02/20 01:09:20;;;;;;;;;;;;;;;1.04;82.59;100891.44;106449;1277;24322;-57
2023/02/20 01:11:49;;;;;;;;;;;;;;;1.06;82.56;100892.61;106601;1278;22564;-58
2023/02/20 01:14:18;;;;;;;;;;;;;;;1.09;82.52;100888.52;106635;1273;23141;-57
2023/02/20 01:16:50;;;;;;;;;;;;;;;1.11;82.60;100886.55;106461;1267;24205;-58
2023/02/20 01:19:20;;;;;;;;;;;;;;;1.13;82.58;100882.39;106598;1270;24268;-55
2023/02/20 01:21:49;;;;;;;;;;;;;;;1.15;82.50;100878.76;106399;1277;23028;-57
2023/02/20 01:24:19;;;;;;;;;;;;;;;1.16;82.54;100879.77;106402;1273;24420;-58
2023/02/20 01:26:48;;;;;;;;;;;;;;;1.16;82.66;100884.41;106374;1277;24270;-58
2023/02/20 01:29:18;;;;;;;;;;;;;;;1.15;82.65;100882.60;106434;1277;25418;-56
2023/02/20 01:31:51;;;;;;;;;;;;;;;1.15;82.72;100883.08;106620;1271;24494;-58
2023/02/20 01:34:20;;;;;;;;;;;;;;;1.14;82.69;100878.14;106453;1271;24385;-55
2023/02/20 01:36:50;;;;;;;;;;;;;;;1.15;82.80;100878.52;106543;1277;24265;-58
2023/02/20 01:39:21;;;;;;;;;;;;;;;1.15;82.84;100870.81;106449;1278;22510;-57
2023/02/20 01:41:52;;;;;;;;;;;;;;;1.16;82.89;100860.98;106387;1277;25395;-57
2023/02/20 01:44:22;;;;;;;;;;;;;;;1.15;82.88;100849.92;106441;1262;22565;-57
2023/02/20 01:46:53;;;;;;;;;;;;;;;1.16;82.84;100843.01;106437;1270;22518;-57
2023/02/20 01:49:25;;;;;;;;;;;;;;;1.16;82.94;100836.63;106637;1262;25417;-55
2023/02/20 01:51:57;;;;;;;;;;;;;;;1.17;83.00;100832.86;106515;1277;22511;-57
2023/02/20 01:54:27;;;;;;;;;;;;;;;1.17;83.06;100826.17;106634;1269;22523;-57
2023/02/20 01:57:00;;;;;;;;;;;;;;;1.18;83.06;100831.52;106584;1277;22512;-57
2023/02/20 01:59:31;;;;;;;;;;;;;;;1.20;83.11;100829.77;106381;1277;26057;-57
2023/02/20 02:02:01;;;;;;;;;;;;;;;1.21;83.07;100833.08;106468;1264;24259;-55
2023/02/20 02:04:30;;;;;;;;;;;;;;;1.23;83.12;100835.26;106501;1270;24377;-58
2023/02/20 02:07:00;;;;;;;;;;;;;;;1.25;83.09;100833.29;106479;1277;27400;-56
2023/02/20 02:09:34;;;;;;;;;;;;;;;1.26;83.12;100827.38;106578;1257;22529;-58
2023/02/20 02:12:04;;;;;;;;;;;;;;;1.27;83.15;100816.22;106483;1277;22643;-57
2023/02/20 02:14:33;;;;;;;;;;;;;;;1.27;83.15;100814.02;106452;1264;22604;-57
2023/02/20 02:17:20;;;;;;;;;;;;;;;1.27;83.19;100806.62;106467;1254;22509;-56
2023/02/20 02:20:07;;;;;;;;;;;;;;;1.26;83.20;100804.67;106729;1271;24254;-56
2023/02/20 02:22:46;;;;;;;;;;;;;;;1.26;83.28;100802.80;106459;1277;22594;-58
2023/02/20 02:25:24;;;;;;;;;;;;;;;1.26;83.32;100804.42;106530;1277;22516;-54
2023/02/20 02:28:13;;;;;;;;;;;;;;;1.27;83.34;100792.55;106398;1277;24471;-57
2023/02/20 02:30:59;;;;;;;;;;;;;;;1.26;83.43;100791.77;106462;1277;22710;-54
2023/02/20 02:33:51;;;;;;;;;;;;;;;1.26;83.41;100788.16;106411;1271;24260;-59
2023/02/20 02:36:28;;;;;;;;;;;;;;;1.26;83.43;100787.85;106061;1281;22623;-57
2023/02/20 02:39:01;;;;;;;;;;;;;;;1.25;83.35;100791.02;106037;1281;23034;-55
2023/02/20 02:41:36;;;;;;;;;;;;;;;1.23;83.38;100789.44;106074;1270;22719;-56
2023/02/20 02:44:10;;;;;;;;;;;;;;;1.22;83.46;100788.44;106231;1281;24918;-58
2023/02/20 02:46:42;;;;;;;;;;;;;;;1.19;83.40;100780.12;106053;1281;22513;-58
2023/02/20 02:49:18;;;;;;;;;;;;;;;1.18;83.45;100777.21;106034;1281;22517;-58
2023/02/20 02:51:48;;;;;;;;;;;;;;;1.18;83.37;100780.76;106199;1281;22523;-57
2023/02/20 02:54:21;;;;;;;;;;;;;;;1.17;83.50;100791.53;106163;1273;22521;-55
2023/02/20 02:56:50;;;;;;;;;;;;;;;1.16;83.40;100787.05;106047;1258;22511;-55
2023/02/20 02:59:22;;;;;;;;;;;;;;;1.15;83.45;100778.58;106054;1278;25445;-58
2023/02/20 03:01:53;;;;;;;;;;;;;;;1.13;83.46;100771.52;106029;1281;24345;-57
2023/02/20 03:04:24;;;;;;;;;;;;;;;1.10;83.59;100767.36;106122;1273;24227;-56
2023/02/20 03:06:57;;;;;;;;;;;;;;;1.08;83.55;100761.88;106096;1281;24456;-57
2023/02/20 03:09:28;;;;;;;;;;;;;;;1.06;83.62;100758.91;106311;1273;22512;-57
2023/02/20 03:11:59;;;;;;;;;;;;;;;1.04;83.67;100752.95;106060;1273;22632;-56
2023/02/20 03:17:26;;;;;;;;;;;;;;;0.99;83.81;100746.54;106521;1270;22868;-58
2023/02/20 03:19:57;;;;;;;;;;;;;;;0.97;83.93;100749.53;106538;1271;25353;-58
2023/02/20 03:22:28;;;;;;;;;;;;;;;0.96;83.94;100745.77;106539;1264;22647;-57
2023/02/20 03:25:00;;;;;;;;;;;;;;;0.96;84.04;100748.83;106546;1277;22520;-58
2023/02/20 03:27:37;;;;;;;;;;;;;;;0.96;84.08;100754.58;106465;1270;22511;-54
2023/02/20 03:30:11;;;;;;;;;;;;;;;0.96;84.14;100750.80;106580;1265;25429;-54
2023/02/20 03:43:56;;;;;;;;;;;;;;;1.05;84.37;100759.48;106438;1262;24266;-58
2023/02/20 03:46:27;;;;;;;;;;;;;;;1.06;84.40;100754.20;106567;1263;25673;-57
2023/02/20 03:48:58;;;;;;;;;;;;;;;1.07;84.34;100749.16;106495;1273;24327;-57
2023/02/20 03:51:28;;;;;;;;;;;;;;;1.09;84.43;100744.75;106606;1270;23027;-59
2023/02/20 03:53:57;;;;;;;;;;;;;;;1.11;84.41;100742.69;106584;1270;22511;-56
2023/02/20 03:56:28;;;;;;;;;;;;;;;1.12;84.39;100745.05;106425;1263;25315;-56
2023/02/20 03:59:01;;;;;;;;;;;;;;;1.14;84.39;100744.89;106440;1277;24243;-58
2023/02/20 04:01:33;;;;;;;;;;;;;;;1.15;84.41;100742.51;106465;1270;24370;-58
2023/02/20 04:04:04;;;;;;;;;;;;;;;1.15;84.40;100735.59;106549;1277;22512;-58
2023/02/20 04:06:35;;;;;;;;;;;;;;;1.17;84.41;100736.68;106487;1261;24317;-57
2023/02/20 04:09:06;;;;;;;;;;;;;;;1.18;84.38;100732.27;106445;1267;24261;-57
2023/02/20 04:11:37;;;;;;;;;;;;;;;1.19;84.42;100727.79;106553;1270;25423;-55
2023/02/20 04:14:07;;;;;;;;;;;;;;;1.20;84.36;100720.86;106439;1277;25325;-56
2023/02/20 04:16:39;;;;;;;;;;;;;;;1.21;84.38;100707.66;106540;1262;24211;-54
2023/02/20 04:19:08;;;;;;;;;;;;;;;1.22;84.27;100710.88;106385;1270;24141;-57
2023/02/20 04:21:39;;;;;;;;;;;;;;;1.23;84.28;100708.43;106433;1277;22508;-58
2023/02/20 04:24:11;;;;;;;;;;;;;;;1.22;84.19;100706.94;106638;1277;25289;-57
2023/02/20 04:26:40;;;;;;;;;;;;;;;1.24;84.25;100703.80;106519;1277;25545;-58
2023/02/20 04:29:09;;;;;;;;;;;;;;;1.25;84.21;100708.96;106563;1277;24379;-57
2023/02/20 04:31:39;;;;;;;;;;;;;;;1.24;84.07;100709.13;106460;1264;24215;-56
2023/02/20 04:34:08;;;;;;;;;;;;;;;1.24;84.04;100711.33;106481;1270;24373;-56
2023/02/20 04:36:38;;;;;;;;;;;;;;;1.25;84.01;100711.48;106434;1276;24210;-56
2023/02/20 04:39:07;;;;;;;;;;;;;;;1.25;84.09;100703.85;106427;1277;22707;-55
2023/02/20 04:41:37;;;;;;;;;;;;;;;1.26;84.17;100701.33;106485;1273;24386;-54
2023/02/20 04:46:55;;;;;;;;;;;;;;;1.24;84.14;100698.05;106367;1270;22542;-57
2023/02/20 04:49:24;;;;;;;;;;;;;;;1.24;84.08;100695.86;106465;1263;22508;-55
2023/02/20 04:51:54;;;;;;;;;;;;;;;1.24;84.18;100689.80;106496;1270;25359;-55
2023/02/20 04:54:24;;;;;;;;;;;;;;;1.23;84.15;100682.27;106360;1276;23028;-54
2023/02/20 04:56:53;;;;;;;;;;;;;;;1.23;84.15;100675.04;106420;1262;22590;-58
2023/02/20 04:59:23;;;;;;;;;;;;;;;1.22;84.29;100671.73;106371;1262;24272;-55
2023/02/20 05:01:53;;;;;;;;;;;;;;;1.23;84.20;100675.98;106413;1277;24269;-57
2023/02/20 05:04:23;;;;;;;;;;;;;;;1.23;84.24;100675.58;106464;1277;24263;-58
2023/02/20 05:06:53;;;;;;;;;;;;;;;1.24;84.16;100668.66;106455;1277;25336;-56
2023/02/20 05:09:22;;;;;;;;;;;;;;;1.24;84.23;100658.84;106469;1262;22504;-57
2023/02/20 05:11:52;;;;;;;;;;;;;;;1.24;84.25;100665.27;106537;1264;22535;-57
2023/02/20 05:14:21;;;;;;;;;;;;;;;1.23;84.24;100660.49;106430;1270;22523;-56
2023/02/20 05:16:51;;;;;;;;;;;;;;;1.22;84.32;100663.17;106358;1270;24763;-57
2023/02/20 05:19:20;;;;;;;;;;;;;;;1.23;84.37;100658.78;106599;1270;22528;-58
2023/02/20 05:24:37;;;;;;;;;;;;;;;1.21;84.42;100661.77;106437;1277;22528;-57
2023/02/20 05:27:06;;;;;;;;;;;;;;;1.23;84.50;100662.70;106585;1271;24316;-63
2023/02/20 05:29:36;;;;;;;;;;;;;;;1.23;84.52;100655.08;106393;1264;22613;-58
2023/02/20 05:32:05;;;;;;;;;;;;;;;1.23;84.48;100646.81;107991;1257;25877;-55
2023/02/20 05:34:34;;;;;;;;;;;;;;;1.24;84.52;100645.09;106380;1272;24494;-56
2023/02/20 05:37:04;;;;;;;;;;;;;;;1.26;84.61;100649.24;106504;1263;22515;-61
2023/02/20 05:39:33;;;;;;;;;;;;;;;1.27;84.50;100641.52;106466;1277;23934;-57
2023/02/20 05:42:02;;;;;;;;;;;;;;;1.29;84.67;100643.87;106455;1277;22512;-57
2023/02/20 05:44:32;;;;;;;;;;;;;;;1.30;84.64;100644.88;106495;1277;22528;-57
2023/02/20 05:47:01;;;;;;;;;;;;;;;1.32;84.72;100646.28;106374;1271;22530;-59
2023/02/20 05:49:31;;;;;;;;;;;;;;;1.34;84.70;100644.29;106497;1257;26152;-57
2023/02/20 05:52:01;;;;;;;;;;;;;;;1.36;84.82;100642.62;106504;1262;24247;-58
2023/02/20 05:54:30;;;;;;;;;;;;;;;1.37;84.87;100639.63;106477;1277;24268;-59
2023/02/20 05:56:59;;;;;;;;;;;;;;;1.39;84.89;100638.66;106570;1267;22620;-59
2023/02/20 05:59:28;;;;;;;;;;;;;;;1.41;84.97;100642.73;106424;1257;22540;-58
2023/02/20 06:01:59;;;;;;;;;;;;;;;1.43;85.06;100644.05;106465;1277;24280;-58
2023/02/20 06:04:28;;;;;;;;;;;;;;;1.46;85.14;100642.05;106490;1277;22510;-59
2023/02/20 06:06:57;;;;;;;;;;;;;;;1.47;85.18;100643.23;106405;1270;22685;-59
2023/02/20 06:09:27;;;;;;;;;;;;;;;1.50;85.21;100631.02;106419;1277;24252;-59
2023/02/20 06:11:56;;;;;;;;;;;;;;;1.52;85.40;100631.40;106630;1262;24255;-55
2023/02/20 06:14:26;;;;;;;;;;;;;;;1.55;85.42;100631.67;106400;1270;24265;-55
2023/02/20 06:16:56;;;;;;;;;;;;;;;1.56;85.38;100632.28;106361;1273;22720;-58
2023/02/20 06:19:26;;;;;;;;;;;;;;;1.60;85.55;100626.44;106592;1270;22520;-56
2023/02/20 06:21:57;;;;;;;;;;;;;;;1.62;85.52;100630.81;106632;1277;23223;-58
2023/02/20 06:24:28;;;;;;;;;;;;;;;1.64;85.59;100629.14;106424;1273;22480;-59
2023/02/20 06:26:57;;;;;;;;;;;;;;;1.67;85.66;100626.84;106466;1271;25713;-59
2023/02/20 06:29:27;;;;;;;;;;;;;;;1.70;85.77;100633.23;106480;1277;24964;-59
2023/02/20 06:31:59;;;;;;;;;;;;;;;1.74;85.84;100631.80;106484;1273;22991;-57
2023/02/20 06:34:32;;;;;;;;;;;;;;;1.77;85.73;100624.36;106550;1262;22520;-56
2023/02/20 06:37:02;;;;;;;;;;;;;;;1.81;85.90;100618.50;106541;1277;22507;-55
2023/02/20 06:39:32;;;;;;;;;;;;;;;1.84;85.96;100613.83;106552;1265;25398;-58
2023/02/20 06:42:01;;;;;;;;;;;;;;;1.88;85.90;100611.10;106419;1270;23157;-56
2023/02/20 06:44:32;;;;;;;;;;;;;;;1.93;86.10;100613.95;106474;1277;22524;-57
2023/02/20 06:47:01;;;;;;;;;;;;;;;1.97;86.12;100614.53;106414;1261;22507;-58
2023/02/20 06:49:30;;;;;;;;;;;;;;;2.02;86.22;100610.38;106526;1262;22493;-58
2023/02/20 06:52:00;;;;;;;;;;;;;;;2.08;86.25;100614.64;106628;1261;25522;-56
2023/02/20 06:54:29;;;;;;;;;;;;;;;2.14;86.42;100609.75;106583;1270;22464;-57
2023/02/20 06:56:59;;;;;;;;;;;;;;;2.19;86.43;100604.02;106441;1273;24287;-58
2023/02/20 06:59:28;;;;;;;;;;;;;;;2.24;86.47;100594.36;106576;1277;24375;-58
2023/02/20 07:01:57;;;;;;;;;;;;;;;2.31;86.50;100594.97;106397;1277;22507;-58
2023/02/20 07:04:27;;;;;;;;;;;;;;;2.38;86.63;100591.80;106508;1277;22525;-58
2023/02/20 07:06:56;;;;;;;;;;;;;;;2.45;86.75;100594.77;106450;1267;25323;-57
2023/02/20 07:09:26;;;;;;;;;;;;;;;2.51;86.69;100591.61;106383;1277;25538;-57
2023/02/20 07:11:55;;;;;;;;;;;;;;;2.58;86.63;100589.80;106316;1268;22551;-56
2023/02/20 07:14:25;;;;;;;;;;;;;;;2.63;86.74;100589.94;106507;1262;22501;-57
2023/02/20 07:16:54;;;;;;;;;;;;;;;2.69;86.63;100580.41;106564;1270;24280;-57
2023/02/20 07:19:24;;;;;;;;;;;;;;;2.75;86.65;100579.20;106431;1262;24361;-58
2023/02/20 07:21:53;;;;;;;;;;;;;;;2.80;86.62;100567.23;106497;1277;22505;-60
2023/02/20 07:24:22;;;;;;;;;;;;;;;2.85;86.61;100560.61;106452;1262;24048;-57
2023/02/20 07:26:52;;;;;;;;;;;;;;;2.90;86.63;100563.14;106425;1273;23162;-55
2023/02/20 07:29:21;;;;;;;;;;;;;;;2.94;86.57;100560.07;106408;1276;22507;-58
2023/02/20 07:31:50;;;;;;;;;;;;;;;2.97;86.65;100552.38;106396;1275;22511;-57
2023/02/20 07:34:20;;;;;;;;;;;;;;;3.01;86.72;100544.80;106498;1270;24276;-57
2023/02/20 07:36:49;;;;;;;;;;;;;;;3.05;86.63;100545.70;106501;1265;24291;-57
2023/02/20 07:39:18;;;;;;;;;;;;;;;3.07;86.77;100538.88;106423;1262;24279;-56
2023/02/20 07:41:50;;;;;;;;;;;;;;;3.11;86.81;100530.93;106471;1273;25298;-59
2023/02/20 07:44:20;;;;;;;;;;;;;;;3.14;86.92;100520.94;106550;1272;25282;-58
2023/02/20 07:46:49;;;;;;;;;;;;;;;3.18;86.98;100517.16;106634;1270;22772;-58
2023/02/20 07:49:18;;;;;;;;;;;;;;;3.22;87.10;100510.08;106554;1262;24350;-58
2023/02/20 07:51:48;;;;;;;;;;;;;;;3.27;87.13;100503.90;106465;1277;22507;-56
2023/02/20 07:54:17;;;;;;;;;;;;;;;3.33;87.25;100503.65;106627;1277;24352;-55
2023/02/20 07:56:46;;;;;;;;;;;;;;;3.41;87.46;100508.46;106387;1277;25515;-54
2023/02/20 07:59:16;;;;;;;;;;;;;;;3.47;87.39;100508.56;106491;1270;22508;-57
2023/02/20 08:01:45;;;;;;;;;;;;;;;3.53;87.39;100503.79;106525;1262;24246;-57
2023/02/20 08:04:15;;;;;;;;;;;;;;;3.59;87.46;100502.09;106803;1270;24237;-58
2023/02/20 08:06:44;;;;;;;;;;;;;;;3.66;87.50;100488.31;106776;1262;22534;-57
2023/02/20 08:09:13;;;;;;;;;;;;;;;3.72;87.64;100491.41;106573;1262;22718;-56
2023/02/20 08:11:43;;;;;;;;;;;;;;;3.79;87.58;100491.49;106443;1271;24094;-59
2023/02/20 08:14:13;;;;;;;;;;;;;;;3.87;87.64;100488.26;107722;1257;22564;-59
2023/02/20 08:16:43;;;;;;;;;;;;;;;3.94;87.69;100481.64;106582;1262;23761;-60
2023/02/20 08:19:12;;;;;;;;;;;;;;;4.02;87.69;100479.55;106574;1267;25626;-58
2023/02/20 08:21:42;;;;;;;;;;;;;;;4.08;87.69;100475.62;106597;1270;22524;-58
2023/02/20 08:24:12;;;;;;;;;;;;;;;4.15;87.66;100464.10;106489;1262;23995;-59
2023/02/20 08:26:44;;;;;;;;;;;;;;;4.21;87.61;100459.92;106593;1262;22659;-63
2023/02/20 08:29:14;;;;;;;;;;;;;;;4.28;87.52;100458.90;106713;1270;25590;-63
2023/02/20 08:31:43;;;;;;;;;;;;;;;4.35;87.56;100458.98;106824;1271;22633;-63
2023/02/20 08:34:13;;;;;;;;;;;;;;;4.42;87.62;100454.92;106810;1271;22533;-59
2023/02/20 08:36:42;;;;;;;;;;;;;;;4.49;87.71;100455.78;106837;1276;22520;-61
2023/02/20 08:39:11;;;;;;;;;;;;;;;4.56;87.70;100449.98;106789;1262;22511;-61
2023/02/20 08:41:44;;;;;;;;;;;;;;;4.65;87.71;100440.05;106774;1277;22599;-61
2023/02/20 08:44:14;;;;;;;;;;;;;;;4.73;87.75;100439.68;106746;1265;22631;-62
2023/02/20 08:46:47;;;;;;;;;;;;;;;4.81;87.80;100437.17;106739;1262;25410;-62
2023/02/20 08:49:17;;;;;;;;;;;;;;;4.89;87.82;100431.98;107203;1269;22511;-58
2023/02/20 08:51:47;;;;;;;;;;;;;;;4.99;87.79;100429.37;106921;1273;23121;-58
2023/02/20 08:54:17;;;;;;;;;;;;;;;5.07;87.77;100419.73;106879;1271;186533;-58
2023/02/20 08:56:47;;;;;;;;;;;;;;;5.16;87.78;100414.73;107165;1274;22524;-59
2023/02/20 08:59:16;;;;;;;;;;;;;;;5.25;87.76;100411.00;106998;1267;22507;-57
2023/02/20 09:01:46;;;;;;;;;;;;;;;5.34;87.66;100404.48;107242;1271;24274;-60
2023/02/20 09:04:16;;;;;;;;;;;;;;;5.42;87.67;100393.71;107101;1254;22519;-59
2023/02/20 09:06:45;;;;;;;;;;;;;;;5.51;87.58;100391.50;107133;1277;22508;-62
2023/02/20 09:09:15;;;;;;;;;;;;;;;5.59;87.41;100391.33;107011;1270;22673;-62
2023/02/20 09:11:44;;;;;;;;;;;;;;;5.65;87.48;100389.39;107145;1274;22523;-61
2023/02/20 09:14:14;;;;;;;;;;;;;;;5.72;87.45;100384.73;107018;1262;23160;-58
2023/02/20 09:16:43;;;;;;;;;;;;;;;5.79;87.52;100381.62;106875;1270;24837;-62
2023/02/20 09:19:14;;;;;;;;;;;;;;;5.86;87.51;100380.77;107034;1270;22746;-64
2023/02/20 09:21:45;;;;;;;;;;;;;;;5.93;87.53;100377.32;107163;1271;22511;-60
2023/02/20 09:24:15;;;;;;;;;;;;;;;5.99;87.44;100371.73;107175;1273;22517;-59
2023/02/20 09:26:45;;;;;;;;;;;;;;;6.05;87.20;100371.30;107035;1270;22522;-59
2023/02/20 09:29:14;;;;;;;;;;;;;;;6.10;87.31;100365.60;107459;1262;22510;-63
2023/02/20 09:31:44;;;;;;;;;;;;;;;6.15;87.40;100368.99;107114;1277;22473;-61
2023/02/20 09:34:13;;;;;;;;;;;;;;;6.19;87.45;100365.93;107114;1262;24313;-58
2023/02/20 09:36:43;;;;;;;;;;;;;;;6.22;87.64;100358.86;107167;1261;23153;-60
2023/02/20 09:42:40;;;;;;;;;;;;;;;6.33;87.85;100346.55;107075;1271;24246;-59
2023/02/20 09:45:11;;;;;;;;;;;;;;;6.41;88.15;100344.67;107122;1262;25429;-61
2023/02/20 09:47:48;;;;;;;;;;;;;;;6.48;87.91;100335.80;107200;1277;24080;-59
2023/02/20 09:50:21;;;;;;;;;;;;;;;6.53;87.41;100329.20;107154;1277;24199;-61
2023/02/20 09:52:56;;;;;;;;;;;;;;;6.59;87.35;100328.21;107112;1262;22522;-60
2023/02/20 09:55:29;;;;;;;;;;;;;;;6.64;86.89;100323.44;107087;1263;22519;-59
2023/02/20 09:57:59;;;;;;;;;;;;;;;6.70;86.67;100317.45;107025;1277;22514;-61
2023/02/20 10:00:30;;;;;;;;;;;;;;;6.76;85.97;100317.15;107228;1271;22657;-61
2023/02/20 10:03:06;;;;;;;;;;;;;;;6.81;85.52;100317.83;107150;1277;22623;-61
2023/02/20 10:05:36;;;;;;;;;;;;;;;6.82;84.45;100314.37;107134;1272;22507;-60
2023/02/20 10:08:09;;;;;;;;;;;;;;;6.83;84.46;100298.02;107068;1273;22505;-59
2023/02/20 10:10:39;;;;;;;;;;;;;;;6.85;84.39;100309.42;107029;1274;22640;-58
2023/02/20 10:13:16;;;;;;;;;;;;;;;6.89;84.31;100302.15;107248;1270;25668;-62
2023/02/20 10:15:51;;;;;;;;;;;;;;;6.92;84.49;100277.52;107309;1270;22546;-60
2023/02/20 10:18:27;;;;;;;;;;;;;;;6.96;84.21;100250.80;107181;1273;22551;-59
2023/02/20 10:21:01;;;;;;;;;;;;;;;7.00;83.98;100240.84;107179;1262;22788;-59
2023/02/20 10:23:38;;;;;;;;;;;;;;;7.03;83.67;100238.31;107186;1273;22528;-60
2023/02/20 10:26:11;;;;;;;;;;;;;;;7.08;83.65;100233.73;107174;1273;22643;-61
2023/02/20 10:28:40;;;;;;;;;;;;;;;7.12;83.41;100239.02;107249;1277;22585;-62
2023/02/20 10:31:20;;;;;;;;;;;;;;;7.18;83.37;100232.99;107103;1263;22505;-61
2023/02/20 10:33:52;;;;;;;;;;;;;;;7.25;83.38;100221.30;107106;1277;22624;-60
2023/02/20 10:36:25;;;;;;;;;;;;;;;7.31;83.36;100203.27;107085;1271;25410;-61
2023/02/20 10:39:00;;;;;;;;;;;;;;;7.38;83.26;100187.39;107115;1266;22528;-62
2023/02/20 10:41:32;;;;;;;;;;;;;;;7.44;83.23;100173.23;107106;1277;23024;-62
2023/02/20 10:44:05;;;;;;;;;;;;;;;7.50;83.31;100168.92;107165;1273;22522;-60
2023/02/20 10:46:39;;;;;;;;;;;;;;;7.57;83.47;100147.95;107088;1271;24316;-60
2023/02/20 10:49:16;;;;;;;;;;;;;;;7.63;83.15;100146.88;106991;1262;22733;-61
2023/02/20 10:51:47;;;;;;;;;;;;;;;7.70;83.35;100140.95;107169;1277;22531;-59
2023/02/20 10:54:21;;;;;;;;;;;;;;;7.78;83.35;100137.60;107078;1273;24417;-61
2023/02/20 10:56:53;;;;;;;;;;;;;;;7.86;83.43;100120.41;107027;1262;22468;-59
2023/02/20 10:59:25;;;;;;;;;;;;;;;7.95;83.35;100105.23;107215;1273;22511;-60
2023/02/20 11:01:57;;;;;;;;;;;;;;;8.04;83.17;100109.67;107076;1273;22463;-61
2023/02/20 11:04:28;;;;;;;;;;;;;;;8.13;83.24;100108.46;107174;1277;22508;-62
2023/02/20 11:07:00;;;;;;;;;;;;;;;8.22;83.01;100115.55;107017;1271;22535;-59
2023/02/20 11:09:29;;;;;;;;;;;;;;;8.26;82.87;100123.38;107179;1273;22508;-61
2023/02/20 11:11:59;;;;;;;;;;;;;;;8.32;82.79;100122.67;107002;1277;24199;-62
2023/02/20 11:14:32;;;;;;;;;;;;;;;8.36;82.60;100105.78;107360;1271;22517;-62
2023/02/20 11:17:05;;;;;;;;;;;;;;;8.40;82.54;100095.77;106978;1277;22515;-60
2023/02/20 11:19:40;;;;;;;;;;;;;;;8.44;82.24;100091.77;106983;1277;25230;-61
2023/02/20 11:22:09;;;;;;;;;;;;;;;8.46;82.12;100090.20;106853;1271;24393;-61
2023/02/20 11:24:39;;;;;;;;;;;;;;;8.50;82.06;100087.64;106932;1278;24316;-62
2023/02/20 11:27:12;;;;;;;;;;;;;;;8.56;82.23;100081.35;106885;1278;22528;-59
2023/02/20 11:29:52;;;;;;;;;;;;;;;8.63;82.10;100081.00;107030;1275;23934;-62
2023/02/20 11:32:26;;;;;;;;;;;;;;;8.71;81.44;100065.17;107074;1268;26545;-60
2023/02/20 11:35:21;;;;;;;;;;;;;;;8.81;81.29;100059.48;106911;1278;23152;-60
2023/02/20 11:37:51;;;;;;;;;;;;;;;8.94;80.69;100063.02;106988;1265;25214;-59
2023/02/20 11:40:24;;;;;;;;;;;;;;;9.02;80.14;100062.95;106840;1278;24316;-62
2023/02/20 11:42:54;;;;;;;;;;;;;;;9.09;80.00;100048.11;107009;1265;22501;-60
2023/02/20 11:45:25;;;;;;;;;;;;;;;9.17;79.96;100037.48;106945;1274;24188;-60
2023/02/20 11:48:08;;;;;;;;;;;;;;;9.22;79.63;100037.35;106762;1271;24390;-62
2023/02/20 11:50:42;;;;;;;;;;;;;;;9.28;78.99;100028.05;106947;1278;22475;-60
2023/02/20 11:53:20;;;;;;;;;;;;;;;9.34;78.22;100025.27;106841;1278;23810;-61
2023/02/20 11:55:50;;;;;;;;;;;;;;;9.39;78.90;100023.27;106858;1274;22515;-60
2023/02/20 11:58:24;;;;;;;;;;;;;;;9.44;79.11;100012.89;106820;1270;24207;-60
2023/02/20 12:00:55;;;;;;;;;;;;;;;9.50;78.62;100004.29;107110;1278;25277;-58
2023/02/20 12:03:27;;;;;;;;;;;;;;;9.56;79.07;99996.44;106817;1267;25496;-58
2023/02/20 12:05:57;;;;;;;;;;;;;;;9.63;79.05;99989.77;106843;1266;22510;-59
2023/02/20 12:08:42;;;;;;;;;;;;;;;9.69;78.44;99978.66;106520;1278;22507;-61
2023/02/20 12:11:15;;;;;;;;;;;;;;;9.77;77.62;99970.14;106848;1275;22511;-59
2023/02/20 12:13:45;;;;;;;;;;;;;;;9.85;77.20;99968.34;106888;1272;24230;-60
2023/02/20 12:16:35;;;;;;;;;;;;;;;9.92;76.19;99960.30;106836;1262;22521;-59
2023/02/20 12:19:10;;;;;;;;;;;;;;;10.00;75.39;99950.95;106972;1278;22528;-61
2023/02/20 12:21:49;;;;;;;;;;;;;;;10.07;76.15;99944.92;106840;1278;22786;-60
2023/02/20 12:24:28;;;;;;;;;;;;;;;10.09;76.54;99940.03;106841;1271;24276;-61
2023/02/20 12:27:00;;;;;;;;;;;;;;;10.07;76.50;99933.61;106781;1274;24267;-62
2023/02/20 12:29:38;;;;;;;;;;;;;;;10.04;76.29;99915.67;106854;1274;22743;-62
2023/02/20 12:32:18;;;;;;;;;;;;;;;10.02;76.23;99909.65;106947;1278;22539;-60
2023/02/20 12:35:02;;;;;;;;;;;;;;;10.00;75.78;99896.23;106824;1274;24213;-59
2023/02/20 12:37:39;;;;;;;;;;;;;;;9.96;75.46;99890.91;106874;1278;22510;-62
2023/02/20 12:40:19;;;;;;;;;;;;;;;9.95;75.69;99883.14;106863;1278;22527;-62
2023/02/20 12:42:53;;;;;;;;;;;;;;;9.96;75.26;99879.75;106813;1278;23156;-62
2023/02/20 12:45:27;;;;;;;;;;;;;;;9.96;75.59;99868.15;106868;1265;25521;-62
2023/02/20 12:48:03;;;;;;;;;;;;;;;9.98;75.18;99856.88;106818;1278;22517;-60
2023/02/20 12:50:40;;;;;;;;;;;;;;;10.00;74.90;99860.59;106888;1278;25528;-58
2023/02/20 12:53:18;;;;;;;;;;;;;;;10.02;74.09;99853.57;106878;1278;24290;-60
2023/02/20 12:55:52;;;;;;;;;;;;;;;10.02;74.32;99835.08;106834;1278;22508;-60
2023/02/20 12:58:27;;;;;;;;;;;;;;;10.04;74.65;99839.65;106899;1262;22521;-60
2023/02/20 13:00:59;;;;;;;;;;;;;;;10.06;74.45;99842.88;107140;1278;22527;-60
2023/02/20 13:03:34;;;;;;;;;;;;;;;10.08;74.06;99838.70;106774;1258;22508;-62
2023/02/20 13:06:04;;;;;;;;;;;;;;;10.10;73.95;99826.42;106818;1274;25415;-61
2023/02/20 13:08:37;;;;;;;;;;;;;;;10.13;74.11;99828.02;106773;1274;22504;-61
2023/02/20 13:11:11;;;;;;;;;;;;;;;10.14;72.64;99820.73;106787;1274;22667;-61
2023/02/20 13:14:01;;;;;;;;;;;;;;;10.16;73.73;99808.88;106777;1278;22498;-61
2023/02/20 13:16:33;;;;;;;;;;;;;;;10.21;73.52;99801.17;106688;1272;22523;-60
2023/02/20 13:19:06;;;;;;;;;;;;;;;10.23;72.99;99805.43;106957;1278;22553;-60
2023/02/20 13:21:36;;;;;;;;;;;;;;;10.24;72.76;99796.41;106829;1278;24216;-61
2023/02/20 13:24:29;;;;;;;;;;;;;;;10.23;72.62;99796.50;106972;1274;24115;-61